EJM65 KLCH-KLEE
Flight info
| Callsign | EJM65 |
|---|---|
| Flight time | N/A |
| Altitude | 41000 |
| Route | CEW OCF |
| Aircraft | CL60/M-SADE3FGHIJ3J4J7P2RWXY/HB1D1 |
Departure
| Time | 2026-04-30 22:37 |
|---|---|
| Airport | Lake Charles Regional Airport (KLCH) |
Arrival
| Time | N/A |
|---|---|
| Airport | Leesburg International Airport (KLEE) |
| Time | Latitude | Longitude | Altitude | Speed | Heading |
|---|---|---|---|---|---|
| 2026-04-30 22:17 | 30.12595 | -93.22238 | 14 ft | 0 kts | 333° |
| 2026-04-30 22:34 | 30.12623 | -93.22352 | 14 ft | 12 kts | 250° |
| 2026-04-30 22:35 | 30.12763 | -93.22495 | 14 ft | 19 kts | 334° |
| 2026-04-30 22:36 | 30.12788 | -93.22859 | 11 ft | 10 kts | 236° |
| 2026-04-30 22:36 | 30.12825 | -93.22935 | 11 ft | 13 kts | 327° |
| 2026-04-30 22:37 | 30.13447 | -93.22098 | 105 ft | 145 kts | 50° |
| 2026-04-30 22:37 | 30.14090 | -93.21198 | 1114 ft | 153 kts | 48° |
| 2026-04-30 22:37 | 30.15562 | -93.19324 | 2935 ft | 194 kts | 46° |
| 2026-04-30 22:38 | 30.17732 | -93.16616 | 3970 ft | 259 kts | 46° |
| 2026-04-30 22:38 | 30.19843 | -93.14000 | 5892 ft | 276 kts | 46° |
| 2026-04-30 22:39 | 30.21145 | -93.12393 | 6998 ft | 284 kts | 46° |
| 2026-04-30 22:39 | 30.24524 | -93.06697 | 10119 ft | 304 kts | 85° |
| 2026-04-30 22:40 | 30.22668 | -92.98873 | 11622 ft | 375 kts | 94° |
| 2026-04-30 22:41 | 30.23650 | -92.89651 | 14042 ft | 400 kts | 83° |
| 2026-04-30 22:41 | 30.24427 | -92.83209 | 15596 ft | 415 kts | 83° |
| 2026-04-30 22:42 | 30.26054 | -92.69559 | 18418 ft | 444 kts | 82° |
| 2026-04-30 22:43 | 30.26897 | -92.62420 | 19718 ft | 457 kts | 81° |
| 2026-04-30 22:43 | 30.27756 | -92.55090 | 21052 ft | 466 kts | 81° |
| 2026-04-30 22:44 | 30.28626 | -92.47623 | 22304 ft | 475 kts | 81° |
| 2026-04-30 22:45 | 30.30396 | -92.32288 | 24710 ft | 489 kts | 81° |
| 2026-04-30 22:45 | 30.31286 | -92.24516 | 25831 ft | 495 kts | 81° |
| 2026-04-30 22:46 | 30.32181 | -92.16650 | 27173 ft | 492 kts | 81° |
| 2026-04-30 22:47 | 30.33936 | -92.01091 | 29918 ft | 487 kts | 81° |
| 2026-04-30 22:47 | 30.34804 | -91.93334 | 31308 ft | 485 kts | 81° |
| 2026-04-30 22:48 | 30.35666 | -91.85593 | 32645 ft | 483 kts | 81° |
| 2026-04-30 22:49 | 30.36944 | -91.74030 | 34461 ft | 484 kts | 81° |
| 2026-04-30 22:49 | 30.38211 | -91.62478 | 36056 ft | 483 kts | 81° |
| 2026-04-30 22:50 | 30.39878 | -91.47120 | 37836 ft | 484 kts | 81° |
| 2026-04-30 22:51 | 30.40708 | -91.39407 | 38618 ft | 485 kts | 80° |
| 2026-04-30 22:51 | 30.41535 | -91.31682 | 39348 ft | 484 kts | 81° |
| 2026-04-30 22:52 | 30.41947 | -91.27819 | 39746 ft | 484 kts | 81° |
| 2026-04-30 22:52 | 30.42765 | -91.20106 | 40437 ft | 484 kts | 81° |
| 2026-04-30 22:53 | 30.43578 | -91.12401 | 40999 ft | 486 kts | 81° |
| 2026-04-30 22:53 | 30.44405 | -91.04540 | 41038 ft | 498 kts | 80° |
| 2026-04-30 22:53 | 30.44819 | -91.00580 | 41040 ft | 504 kts | 80° |
| 2026-04-30 22:54 | 30.45669 | -90.92421 | 40963 ft | 515 kts | 80° |
| 2026-04-30 22:55 | 30.46951 | -90.79995 | 40928 ft | 525 kts | 80° |
| 2026-04-30 22:56 | 30.48675 | -90.63084 | 40940 ft | 533 kts | 81° |
| 2026-04-30 22:57 | 30.50813 | -90.41794 | 40950 ft | 533 kts | 80° |
| 2026-04-30 22:58 | 30.52498 | -90.24772 | 40956 ft | 532 kts | 81° |
| 2026-04-30 22:59 | 30.54980 | -89.99269 | 40960 ft | 533 kts | 81° |